Startpagina
METAR-TAF:

METAR-TAF

Vliegvelden :

Jakoetsk, Rusland

Luchthaven Jakoetsk

breedte: 62-01N, lengte: 129-43E, hoogte: 103 m

Actueel weer

Dit bericht is 38 minuten geleden gemaakt, om 01:30 UTC
Wind 6 kt uit het oostzuidoosten
Temperatuur 6°C
Vochtigheid 61%
Druk 1011 hPa
Zicht 10 km of meer
geen wolken onder 1500 m en geen cumulonimbus

METAR: UEEE 230130Z 11003MPS CAVOK 06/M01 Q1011 R23L/09//60 NOSIG RMK QFE749

Tijdstip: 11:08 (02:08 UTC)

Verwachting

Dit bericht is 3 uur en het 8 minuten geleden gemaakt, om 23:00 UTC
Verwachting geldig van 23 om 00 UTC tot 24 om 06 UTC
Wind 10 kt uit het oosten met uitschieters tot 19 kt
Zicht 10 km of meer
geen wolken onder 1500 m en geen cumulonimbus
Wijzigt naar
van 23 om 12 UTC tot 23 om 14 UTC
Zicht 10 km of meer
Gebroken wolken op 2000 ft, Cumulonimbus.
Geheel bewolkt op 7000 ft

TAF: UEEE 222300Z 2300/2406 10005G10MPS CAVOK BECMG 2312/2314 9999 BKN020CB OVC070

Waarnemingen en weersverwachtingen van meer dan 4000 vliegvelden (METAR en TAF).

De beschikbare stations zijn de gele en rode punten op de kaart.

Ga met uw muis naar het station om de naam te zien.

Klik dan om waarnemingen en weersverwachtingen te zien.

kaart wijzigen: klik op de groene knoppen met een zwart kruis om in te zoomen, op de groene knop met een streepje om uit te zoomen of op de groene pijlen voor aangrenzende kaarten.


METAR-TAF: